PWSweather.com
Personal Weather Stations
Station Observations
SANDHURSTWX
SandhurstGB

SandhurstGB

Lat: 51.3522, Lon: -0.7739

Elevation: 272.3

Station Type: Davis VP2

www.sandhurstweather.org.uk

High Low Average
Temperature 66.1°F18.9°C 52.5°F11.4°C 58.5°F14.7°C
Dew Point 57.5°F14.2°C 50.5°F10.3°C 53.8°F12.1°C
Winds 11.5 mph 18.5 kmh 2.3 mph 3.7 kmh 5.0 mph SSW8.0 kmh SSW
Wind Gusts 15.0 mph24.1 kmh 2.3 mph3.7 kmh 7.0 mph11.3 kmh
Humidity 97% 68% 85%
Pressure 29.81 in1009.5 mb 29.62 in1003.0 mb -
Precipitation 0.11 in2.8 mm - -
Hour Temp Dew Point Humidity Winds Wind Gusts Pressure Precip Precip Rate Daily Precip Total
12:00 AM 52.7°F11.5°C 50.7°F10.4°C 93% 2.3 mph SW3.7 kmh SW 3.5 mph5.6 kmh 29.74 in1007.1 mb - 0.00 in0.0 mm 0.00 in0.0 mm
01:00 AM 52.6°F11.4°C 50.9°F10.5°C 94% 2.3 mph SSE3.7 kmh SSE 2.3 mph3.7 kmh 29.75 in1007.5 mb - 0.00 in0.0 mm 0.00 in0.0 mm
02:00 AM 52.6°F11.4°C 50.6°F10.3°C 93% 3.5 mph SSW5.6 kmh SSW 3.5 mph5.6 kmh 29.75 in1007.5 mb - 0.00 in0.0 mm 0.00 in0.0 mm
03:00 AM 52.5°F11.4°C 50.5°F10.3°C 93% 2.3 mph SW3.7 kmh SW 2.3 mph3.7 kmh 29.75 in1007.5 mb - 0.00 in0.0 mm 0.00 in0.0 mm
04:00 AM 52.7°F11.5°C 51.0°F10.6°C 94% 3.5 mph SSW5.6 kmh SSW 4.6 mph7.4 kmh 29.75 in1007.5 mb - 0.00 in0.0 mm 0.00 in0.0 mm
05:00 AM 54.5°F12.5°C 52.5°F11.4°C 93% 3.5 mph SW5.6 kmh SW 4.6 mph7.4 kmh 29.75 in1007.5 mb - 0.00 in0.0 mm 0.00 in0.0 mm
06:00 AM 54.9°F12.7°C 52.9°F11.6°C 93% 2.3 mph SW3.7 kmh SW 3.5 mph5.6 kmh 29.75 in1007.5 mb - 0.00 in0.0 mm 0.00 in0.0 mm
07:00 AM 56.1°F13.4°C 53.8°F12.1°C 92% 4.6 mph SSW7.4 kmh SSW 6.9 mph11.1 kmh 29.76 in1007.8 mb - 0.00 in0.0 mm 0.00 in0.0 mm
08:00 AM 57.7°F14.3°C 54.8°F12.7°C 90% 5.8 mph SW9.3 kmh SW 9.2 mph14.8 kmh 29.78 in1008.5 mb - 0.00 in0.0 mm 0.00 in0.0 mm
09:00 AM 59.8°F15.4°C 55.0°F12.8°C 84% 4.6 mph SSW7.4 kmh SSW 9.2 mph14.8 kmh 29.80 in1009.1 mb - 0.00 in0.0 mm 0.00 in0.0 mm
10:00 AM 64.2°F17.9°C 56.2°F13.4°C 75% 6.9 mph SSW11.1 kmh SSW 12.7 mph20.4 kmh 29.80 in1009.1 mb - 0.00 in0.0 mm 0.00 in0.0 mm
11:00 AM 63.7°F17.6°C 55.3°F12.9°C 74% 5.8 mph SSW9.3 kmh SSW 10.4 mph16.7 kmh 29.81 in1009.5 mb - 0.00 in0.0 mm 0.00 in0.0 mm
12:00 PM 65.3°F18.5°C 55.3°F12.9°C 70% 5.8 mph SW9.3 kmh SW 10.4 mph16.7 kmh 29.81 in1009.5 mb - 0.00 in0.0 mm 0.00 in0.0 mm
01:00 PM 65.2°F18.4°C 54.3°F12.4°C 68% 2.3 mph SW3.7 kmh SW 5.8 mph9.3 kmh 29.80 in1009.1 mb - 0.00 in0.0 mm 0.00 in0.0 mm
02:00 PM 66.1°F18.9°C 55.2°F12.9°C 68% 4.6 mph SSW7.4 kmh SSW 5.8 mph9.3 kmh 29.80 in1009.1 mb - 0.00 in0.0 mm 0.00 in0.0 mm
03:00 PM 63.5°F17.5°C 53.9°F12.2°C 71% 2.3 mph SW3.7 kmh SW 4.6 mph7.4 kmh 29.80 in1009.1 mb - 0.01 in0.3 mm 0.01 in0.3 mm
04:00 PM 62.0°F16.7°C 53.2°F11.8°C 73% 3.5 mph SW5.6 kmh SW 4.6 mph7.4 kmh 29.81 in1009.5 mb - 0.00 in0.0 mm 0.01 in0.3 mm
05:00 PM 60.6°F15.9°C 53.0°F11.7°C 76% 3.5 mph SSW5.6 kmh SSW 6.9 mph11.1 kmh 29.80 in1009.1 mb - 0.00 in0.0 mm 0.01 in0.3 mm
06:00 PM 59.6°F15.3°C 53.4°F11.9°C 80% 2.3 mph S3.7 kmh S 3.5 mph5.6 kmh 29.80 in1009.1 mb - 0.00 in0.0 mm 0.01 in0.3 mm
07:00 PM 57.4°F14.1°C 54.5°F12.5°C 90% 5.8 mph SSE9.3 kmh SSE 8.1 mph13.0 kmh 29.78 in1008.5 mb - 0.02 in0.5 mm 0.02 in0.5 mm
08:00 PM 57.2°F14.0°C 55.2°F12.9°C 93% 6.9 mph S11.1 kmh S 8.1 mph13.0 kmh 29.75 in1007.5 mb - 0.02 in0.5 mm 0.04 in1.0 mm
09:00 PM 56.7°F13.7°C 55.3°F12.9°C 95% 11.5 mph SSE18.5 kmh SSE 12.7 mph20.4 kmh 29.71 in1006.1 mb - 0.06 in1.5 mm 0.10 in2.5 mm
10:00 PM 57.0°F13.9°C 55.8°F13.2°C 96% 5.8 mph S9.3 kmh S 15.0 mph24.1 kmh 29.66 in1004.4 mb - 0.01 in0.3 mm 0.11 in2.8 mm
11:00 PM 58.3°F14.6°C 57.5°F14.2°C 97% 8.1 mph S13.0 kmh S 12.7 mph20.4 kmh 29.62 in1003.0 mb - 0.01 in0.3 mm 0.13 in3.3 mm